sensor_id;sensor_type;location;lat;lon;timestamp;P1;durP1;ratioP1;P2;durP2;ratioP2
74267;SDS011;62638;51.362;12.472;2023-02-15T00:01:08;20.33;;;8.70;;
74267;SDS011;62638;51.362;12.472;2023-02-15T00:03:34;17.73;;;7.15;;
74267;SDS011;62638;51.362;12.472;2023-02-15T00:06:00;16.33;;;8.50;;
74267;SDS011;62638;51.362;12.472;2023-02-15T00:08:26;21.08;;;8.25;;
74267;SDS011;62638;51.362;12.472;2023-02-15T00:10:51;16.90;;;7.40;;
74267;SDS011;62638;51.362;12.472;2023-02-15T00:13:16;16.63;;;6.97;;
74267;SDS011;62638;51.362;12.472;2023-02-15T00:15:41;17.00;;;6.40;;
74267;SDS011;62638;51.362;12.472;2023-02-15T00:18:07;19.00;;;8.53;;
74267;SDS011;62638;51.362;12.472;2023-02-15T00:20:32;15.20;;;8.52;;
74267;SDS011;62638;51.362;12.472;2023-02-15T00:22:58;24.37;;;8.33;;
74267;SDS011;62638;51.362;12.472;2023-02-15T00:25:23;14.30;;;7.55;;
74267;SDS011;62638;51.362;12.472;2023-02-15T00:27:49;12.13;;;7.47;;
74267;SDS011;62638;51.362;12.472;2023-02-15T00:30:14;21.93;;;8.47;;
74267;SDS011;62638;51.362;12.472;2023-02-15T00:32:41;14.95;;;7.28;;
74267;SDS011;62638;51.362;12.472;2023-02-15T00:35:06;21.87;;;8.33;;
74267;SDS011;62638;51.362;12.472;2023-02-15T00:37:32;14.05;;;7.32;;
74267;SDS011;62638;51.362;12.472;2023-02-15T00:39:57;15.75;;;6.68;;
74267;SDS011;62638;51.362;12.472;2023-02-15T00:42:23;14.05;;;6.97;;
74267;SDS011;62638;51.362;12.472;2023-02-15T00:44:48;15.95;;;7.90;;
74267;SDS011;62638;51.362;12.472;2023-02-15T00:47:13;18.30;;;6.83;;
74267;SDS011;62638;51.362;12.472;2023-02-15T00:49:38;25.20;;;7.77;;
74267;SDS011;62638;51.362;12.472;2023-02-15T00:52:04;27.13;;;10.67;;
74267;SDS011;62638;51.362;12.472;2023-02-15T00:54:29;17.23;;;7.83;;
74267;SDS011;62638;51.362;12.472;2023-02-15T00:56:54;13.03;;;8.47;;
74267;SDS011;62638;51.362;12.472;2023-02-15T00:59:20;14.27;;;6.20;;
74267;SDS011;62638;51.362;12.472;2023-02-15T01:01:45;19.67;;;7.53;;
74267;SDS011;62638;51.362;12.472;2023-02-15T01:04:10;24.30;;;12.17;;
74267;SDS011;62638;51.362;12.472;2023-02-15T01:06:35;18.07;;;8.63;;
74267;SDS011;62638;51.362;12.472;2023-02-15T01:09:01;22.60;;;8.40;;
74267;SDS011;62638;51.362;12.472;2023-02-15T01:11:26;14.00;;;8.98;;
74267;SDS011;62638;51.362;12.472;2023-02-15T01:13:52;12.32;;;7.60;;
74267;SDS011;62638;51.362;12.472;2023-02-15T01:16:23;12.20;;;5.80;;
74267;SDS011;62638;51.362;12.472;2023-02-15T01:18:49;21.50;;;9.63;;
74267;SDS011;62638;51.362;12.472;2023-02-15T01:21:16;22.52;;;8.48;;
74267;SDS011;62638;51.362;12.472;2023-02-15T01:23:43;19.83;;;8.13;;
74267;SDS011;62638;51.362;12.472;2023-02-15T01:26:08;17.65;;;7.28;;
74267;SDS011;62638;51.362;12.472;2023-02-15T01:28:34;23.15;;;9.15;;
74267;SDS011;62638;51.362;12.472;2023-02-15T01:31:04;13.75;;;5.53;;
74267;SDS011;62638;51.362;12.472;2023-02-15T01:33:33;13.18;;;6.22;;
74267;SDS011;62638;51.362;12.472;2023-02-15T01:35:59;7.55;;;5.88;;
74267;SDS011;62638;51.362;12.472;2023-02-15T01:38:24;12.83;;;7.37;;
74267;SDS011;62638;51.362;12.472;2023-02-15T01:40:50;23.43;;;8.13;;
74267;SDS011;62638;51.362;12.472;2023-02-15T01:43:17;17.92;;;7.47;;
74267;SDS011;62638;51.362;12.472;2023-02-15T01:45:43;17.05;;;8.60;;
74267;SDS011;62638;51.362;12.472;2023-02-15T01:48:18;16.40;;;8.13;;
74267;SDS011;62638;51.362;12.472;2023-02-15T01:50:50;14.00;;;7.63;;
74267;SDS011;62638;51.362;12.472;2023-02-15T01:53:27;20.23;;;8.05;;
74267;SDS011;62638;51.362;12.472;2023-02-15T01:56:00;12.23;;;6.95;;
74267;SDS011;62638;51.362;12.472;2023-02-15T01:58:29;10.65;;;6.18;;
74267;SDS011;62638;51.362;12.472;2023-02-15T02:00:55;15.32;;;6.35;;
74267;SDS011;62638;51.362;12.472;2023-02-15T02:03:28;19.98;;;8.48;;
74267;SDS011;62638;51.362;12.472;2023-02-15T02:06:01;14.50;;;5.93;;
74267;SDS011;62638;51.362;12.472;2023-02-15T02:08:26;16.37;;;7.47;;
74267;SDS011;62638;51.362;12.472;2023-02-15T02:10:53;12.10;;;6.28;;
74267;SDS011;62638;51.362;12.472;2023-02-15T02:13:18;18.07;;;7.20;;
74267;SDS011;62638;51.362;12.472;2023-02-15T02:15:53;9.23;;;6.40;;
74267;SDS011;62638;51.362;12.472;2023-02-15T02:21:40;18.15;;;6.07;;
74267;SDS011;62638;51.362;12.472;2023-02-15T02:24:31;9.52;;;6.45;;
74267;SDS011;62638;51.362;12.472;2023-02-15T02:38:26;13.90;;;5.80;;
74267;SDS011;62638;51.362;12.472;2023-02-15T02:43:48;14.40;;;7.32;;
74267;SDS011;62638;51.362;12.472;2023-02-15T02:46:21;12.13;;;8.23;;
74267;SDS011;62638;51.362;12.472;2023-02-15T02:48:51;14.07;;;6.75;;
74267;SDS011;62638;51.362;12.472;2023-02-15T02:51:17;16.23;;;6.97;;
74267;SDS011;62638;51.362;12.472;2023-02-15T02:56:18;12.23;;;5.00;;
74267;SDS011;62638;51.362;12.472;2023-02-15T02:58:50;6.18;;;4.65;;
74267;SDS011;62638;51.362;12.472;2023-02-15T03:01:26;9.75;;;4.88;;
74267;SDS011;62638;51.362;12.472;2023-02-15T03:04:17;14.75;;;5.32;;
74267;SDS011;62638;51.362;12.472;2023-02-15T03:06:50;11.68;;;6.70;;
74267;SDS011;62638;51.362;12.472;2023-02-15T03:12:28;24.20;;;5.97;;
74267;SDS011;62638;51.362;12.472;2023-02-15T03:15:42;13.18;;;4.85;;
74267;SDS011;62638;51.362;12.472;2023-02-15T03:17:46;10.70;;;6.38;;
74267;SDS011;62638;51.362;12.472;2023-02-15T03:20:27;14.95;;;5.20;;
74267;SDS011;62638;51.362;12.472;2023-02-15T03:28:11;7.03;;;5.32;;
74267;SDS011;62638;51.362;12.472;2023-02-15T03:30:43;10.60;;;5.90;;
74267;SDS011;62638;51.362;12.472;2023-02-15T03:33:13;8.75;;;6.13;;
74267;SDS011;62638;51.362;12.472;2023-02-15T03:35:44;14.20;;;5.82;;
74267;SDS011;62638;51.362;12.472;2023-02-15T03:38:26;14.10;;;6.80;;
74267;SDS011;62638;51.362;12.472;2023-02-15T03:40:57;18.50;;;6.63;;
74267;SDS011;62638;51.362;12.472;2023-02-15T03:43:42;8.98;;;4.57;;
74267;SDS011;62638;51.362;12.472;2023-02-15T03:46:22;4.95;;;3.42;;
74267;SDS011;62638;51.362;12.472;2023-02-15T03:49:01;13.85;;;5.88;;
74267;SDS011;62638;51.362;12.472;2023-02-15T03:51:33;13.40;;;7.53;;
74267;SDS011;62638;51.362;12.472;2023-02-15T03:54:09;7.40;;;4.47;;
74267;SDS011;62638;51.362;12.472;2023-02-15T03:56:41;18.42;;;7.00;;
74267;SDS011;62638;51.362;12.472;2023-02-15T03:59:27;19.40;;;7.03;;
74267;SDS011;62638;51.362;12.472;2023-02-15T04:04:43;10.93;;;7.45;;
74267;SDS011;62638;51.362;12.472;2023-02-15T04:07:11;11.23;;;7.47;;
74267;SDS011;62638;51.362;12.472;2023-02-15T04:09:36;16.58;;;7.88;;
74267;SDS011;62638;51.362;12.472;2023-02-15T04:12:20;9.25;;;6.43;;
74267;SDS011;62638;51.362;12.472;2023-02-15T04:14:46;15.75;;;5.85;;
74267;SDS011;62638;51.362;12.472;2023-02-15T04:17:30;9.55;;;5.82;;
74267;SDS011;62638;51.362;12.472;2023-02-15T04:19:55;7.22;;;5.22;;
74267;SDS011;62638;51.362;12.472;2023-02-15T04:22:39;13.48;;;6.90;;
74267;SDS011;62638;51.362;12.472;2023-02-15T04:25:24;10.60;;;5.75;;
74267;SDS011;62638;51.362;12.472;2023-02-15T04:27:50;8.32;;;4.95;;
74267;SDS011;62638;51.362;12.472;2023-02-15T04:30:18;14.63;;;5.93;;
74267;SDS011;62638;51.362;12.472;2023-02-15T04:32:45;11.93;;;5.40;;
74267;SDS011;62638;51.362;12.472;2023-02-15T04:35:11;12.85;;;5.82;;
74267;SDS011;62638;51.362;12.472;2023-02-15T04:37:38;7.47;;;3.97;;
74267;SDS011;62638;51.362;12.472;2023-02-15T04:40:05;16.25;;;5.53;;
74267;SDS011;62638;51.362;12.472;2023-02-15T04:42:31;8.00;;;4.90;;
74267;SDS011;62638;51.362;12.472;2023-02-15T04:44:56;11.05;;;6.30;;
74267;SDS011;62638;51.362;12.472;2023-02-15T04:47:22;10.68;;;6.15;;
74267;SDS011;62638;51.362;12.472;2023-02-15T04:49:47;9.45;;;5.78;;
74267;SDS011;62638;51.362;12.472;2023-02-15T04:52:12;7.47;;;5.03;;
74267;SDS011;62638;51.362;12.472;2023-02-15T04:54:38;15.77;;;6.85;;
74267;SDS011;62638;51.362;12.472;2023-02-15T04:57:04;10.48;;;5.35;;
74267;SDS011;62638;51.362;12.472;2023-02-15T04:59:30;10.63;;;5.55;;
74267;SDS011;62638;51.362;12.472;2023-02-15T05:01:55;11.63;;;3.72;;
74267;SDS011;62638;51.362;12.472;2023-02-15T05:04:21;16.55;;;5.47;;
74267;SDS011;62638;51.362;12.472;2023-02-15T05:06:46;13.88;;;7.30;;
74267;SDS011;62638;51.362;12.472;2023-02-15T05:09:11;11.30;;;4.80;;
74267;SDS011;62638;51.362;12.472;2023-02-15T05:11:37;9.23;;;5.15;;
74267;SDS011;62638;51.362;12.472;2023-02-15T05:14:02;6.22;;;4.53;;
74267;SDS011;62638;51.362;12.472;2023-02-15T05:16:28;6.97;;;3.72;;
74267;SDS011;62638;51.362;12.472;2023-02-15T05:18:53;8.73;;;4.88;;
74267;SDS011;62638;51.362;12.472;2023-02-15T05:21:18;9.43;;;5.60;;
74267;SDS011;62638;51.362;12.472;2023-02-15T05:23:44;10.23;;;4.20;;
74267;SDS011;62638;51.362;12.472;2023-02-15T05:26:12;13.02;;;5.40;;
74267;SDS011;62638;51.362;12.472;2023-02-15T05:28:59;9.40;;;5.68;;
74267;SDS011;62638;51.362;12.472;2023-02-15T05:31:24;9.00;;;4.67;;
74267;SDS011;62638;51.362;12.472;2023-02-15T05:33:49;11.37;;;6.43;;
74267;SDS011;62638;51.362;12.472;2023-02-15T05:36:14;11.60;;;4.83;;
74267;SDS011;62638;51.362;12.472;2023-02-15T05:38:40;9.73;;;4.50;;
74267;SDS011;62638;51.362;12.472;2023-02-15T05:41:05;13.50;;;5.88;;
74267;SDS011;62638;51.362;12.472;2023-02-15T05:43:32;10.48;;;3.67;;
74267;SDS011;62638;51.362;12.472;2023-02-15T05:45:57;8.55;;;4.45;;
74267;SDS011;62638;51.362;12.472;2023-02-15T05:48:24;6.05;;;3.58;;
74267;SDS011;62638;51.362;12.472;2023-02-15T05:53:28;4.47;;;3.53;;
74267;SDS011;62638;51.362;12.472;2023-02-15T05:55:55;8.13;;;3.58;;
74267;SDS011;62638;51.362;12.472;2023-02-15T05:58:24;11.52;;;5.13;;
74267;SDS011;62638;51.362;12.472;2023-02-15T06:00:50;5.28;;;3.17;;
74267;SDS011;62638;51.362;12.472;2023-02-15T06:03:15;12.02;;;5.68;;
74267;SDS011;62638;51.362;12.472;2023-02-15T06:05:41;9.03;;;5.57;;
74267;SDS011;62638;51.362;12.472;2023-02-15T06:08:06;15.35;;;6.88;;
74267;SDS011;62638;51.362;12.472;2023-02-15T06:10:32;4.87;;;3.73;;
74267;SDS011;62638;51.362;12.472;2023-02-15T06:12:57;11.80;;;4.30;;
74267;SDS011;62638;51.362;12.472;2023-02-15T06:15:22;8.60;;;5.10;;
74267;SDS011;62638;51.362;12.472;2023-02-15T06:17:47;12.03;;;4.83;;
74267;SDS011;62638;51.362;12.472;2023-02-15T06:20:13;3.20;;;2.73;;
74267;SDS011;62638;51.362;12.472;2023-02-15T06:22:38;7.30;;;5.10;;
74267;SDS011;62638;51.362;12.472;2023-02-15T06:25:03;7.50;;;5.00;;
74267;SDS011;62638;51.362;12.472;2023-02-15T06:27:29;9.82;;;5.72;;
74267;SDS011;62638;51.362;12.472;2023-02-15T06:29:54;12.33;;;4.73;;
74267;SDS011;62638;51.362;12.472;2023-02-15T06:32:19;9.27;;;5.30;;
74267;SDS011;62638;51.362;12.472;2023-02-15T06:34:45;8.98;;;5.35;;
74267;SDS011;62638;51.362;12.472;2023-02-15T06:37:10;9.63;;;4.30;;
74267;SDS011;62638;51.362;12.472;2023-02-15T06:39:35;9.23;;;3.80;;
74267;SDS011;62638;51.362;12.472;2023-02-15T06:42:01;8.17;;;4.43;;
74267;SDS011;62638;51.362;12.472;2023-02-15T06:44:26;13.27;;;5.67;;
74267;SDS011;62638;51.362;12.472;2023-02-15T06:46:51;7.87;;;4.27;;
74267;SDS011;62638;51.362;12.472;2023-02-15T06:49:16;7.53;;;4.40;;
74267;SDS011;62638;51.362;12.472;2023-02-15T06:51:42;11.30;;;4.53;;
74267;SDS011;62638;51.362;12.472;2023-02-15T06:54:07;8.00;;;5.20;;
74267;SDS011;62638;51.362;12.472;2023-02-15T06:56:32;7.20;;;5.03;;
74267;SDS011;62638;51.362;12.472;2023-02-15T06:58:57;6.43;;;3.80;;
74267;SDS011;62638;51.362;12.472;2023-02-15T07:01:23;10.88;;;5.07;;
74267;SDS011;62638;51.362;12.472;2023-02-15T07:03:49;11.30;;;3.87;;
74267;SDS011;62638;51.362;12.472;2023-02-15T07:06:14;11.88;;;6.00;;
74267;SDS011;62638;51.362;12.472;2023-02-15T07:08:39;10.50;;;4.53;;
74267;SDS011;62638;51.362;12.472;2023-02-15T07:11:05;12.53;;;4.60;;
74267;SDS011;62638;51.362;12.472;2023-02-15T07:13:50;8.35;;;4.57;;
74267;SDS011;62638;51.362;12.472;2023-02-15T07:16:17;10.27;;;3.90;;
74267;SDS011;62638;51.362;12.472;2023-02-15T07:18:43;9.30;;;4.28;;
74267;SDS011;62638;51.362;12.472;2023-02-15T07:21:08;12.23;;;5.82;;
74267;SDS011;62638;51.362;12.472;2023-02-15T07:23:36;11.13;;;4.63;;
74267;SDS011;62638;51.362;12.472;2023-02-15T07:26:03;8.98;;;6.47;;
74267;SDS011;62638;51.362;12.472;2023-02-15T07:28:33;14.93;;;6.20;;
74267;SDS011;62638;51.362;12.472;2023-02-15T07:31:02;9.20;;;4.32;;
74267;SDS011;62638;51.362;12.472;2023-02-15T07:33:31;12.52;;;5.43;;
74267;SDS011;62638;51.362;12.472;2023-02-15T07:35:58;8.05;;;5.03;;
74267;SDS011;62638;51.362;12.472;2023-02-15T07:38:26;8.98;;;5.35;;
74267;SDS011;62638;51.362;12.472;2023-02-15T07:43:23;11.70;;;4.03;;
74267;SDS011;62638;51.362;12.472;2023-02-15T07:45:48;9.80;;;4.87;;
74267;SDS011;62638;51.362;12.472;2023-02-15T07:48:13;15.57;;;7.00;;
74267;SDS011;62638;51.362;12.472;2023-02-15T07:50:38;11.20;;;4.47;;
74267;SDS011;62638;51.362;12.472;2023-02-15T07:53:04;5.63;;;3.43;;
74267;SDS011;62638;51.362;12.472;2023-02-15T07:55:29;11.27;;;4.97;;
74267;SDS011;62638;51.362;12.472;2023-02-15T07:57:55;11.35;;;5.25;;
74267;SDS011;62638;51.362;12.472;2023-02-15T08:00:21;8.40;;;3.83;;
74267;SDS011;62638;51.362;12.472;2023-02-15T08:02:53;7.45;;;4.30;;
74267;SDS011;62638;51.362;12.472;2023-02-15T08:05:42;11.70;;;5.68;;
74267;SDS011;62638;51.362;12.472;2023-02-15T08:08:09;10.15;;;5.35;;
74267;SDS011;62638;51.362;12.472;2023-02-15T08:10:57;8.63;;;4.38;;
74267;SDS011;62638;51.362;12.472;2023-02-15T08:13:47;8.52;;;3.17;;
74267;SDS011;62638;51.362;12.472;2023-02-15T08:16:33;11.68;;;4.95;;
74267;SDS011;62638;51.362;12.472;2023-02-15T08:19:01;11.35;;;5.75;;
74267;SDS011;62638;51.362;12.472;2023-02-15T08:21:29;10.55;;;4.90;;
74267;SDS011;62638;51.362;12.472;2023-02-15T08:23:55;10.25;;;5.35;;
74267;SDS011;62638;51.362;12.472;2023-02-15T08:26:21;10.85;;;5.65;;
74267;SDS011;62638;51.362;12.472;2023-02-15T08:28:47;8.70;;;4.95;;
74267;SDS011;62638;51.362;12.472;2023-02-15T08:31:13;5.30;;;3.33;;
74267;SDS011;62638;51.362;12.472;2023-02-15T08:33:40;7.07;;;3.85;;
74267;SDS011;62638;51.362;12.472;2023-02-15T08:36:11;8.15;;;4.20;;
74267;SDS011;62638;51.362;12.472;2023-02-15T08:38:38;6.50;;;2.65;;
74267;SDS011;62638;51.362;12.472;2023-02-15T08:41:15;11.93;;;4.05;;
74267;SDS011;62638;51.362;12.472;2023-02-15T08:43:41;7.03;;;3.00;;
74267;SDS011;62638;51.362;12.472;2023-02-15T08:46:08;9.63;;;4.22;;
74267;SDS011;62638;51.362;12.472;2023-02-15T08:48:35;9.02;;;3.95;;
74267;SDS011;62638;51.362;12.472;2023-02-15T08:51:08;8.80;;;3.28;;
74267;SDS011;62638;51.362;12.472;2023-02-15T08:53:45;5.57;;;3.65;;
74267;SDS011;62638;51.362;12.472;2023-02-15T08:56:14;6.53;;;3.85;;
74267;SDS011;62638;51.362;12.472;2023-02-15T08:58:40;8.82;;;4.40;;
74267;SDS011;62638;51.362;12.472;2023-02-15T09:01:16;7.38;;;4.18;;
74267;SDS011;62638;51.362;12.472;2023-02-15T09:03:45;5.47;;;2.78;;
74267;SDS011;62638;51.362;12.472;2023-02-15T09:06:11;6.10;;;3.67;;
74267;SDS011;62638;51.362;12.472;2023-02-15T09:08:37;8.98;;;3.00;;
74267;SDS011;62638;51.362;12.472;2023-02-15T09:11:07;6.68;;;2.90;;
74267;SDS011;62638;51.362;12.472;2023-02-15T09:13:47;4.90;;;2.80;;
74267;SDS011;62638;51.362;12.472;2023-02-15T09:16:13;6.47;;;2.55;;
74267;SDS011;62638;51.362;12.472;2023-02-15T09:18:38;7.07;;;3.27;;
74267;SDS011;62638;51.362;12.472;2023-02-15T09:21:08;5.03;;;3.10;;
74267;SDS011;62638;51.362;12.472;2023-02-15T09:23:38;6.20;;;2.40;;
74267;SDS011;62638;51.362;12.472;2023-02-15T09:26:04;6.57;;;2.72;;
74267;SDS011;62638;51.362;12.472;2023-02-15T09:28:31;6.43;;;2.65;;
74267;SDS011;62638;51.362;12.472;2023-02-15T09:33:32;4.93;;;2.65;;
74267;SDS011;62638;51.362;12.472;2023-02-15T09:35:59;4.45;;;1.95;;
74267;SDS011;62638;51.362;12.472;2023-02-15T09:38:25;4.57;;;2.03;;
74267;SDS011;62638;51.362;12.472;2023-02-15T09:40:54;5.53;;;2.67;;
74267;SDS011;62638;51.362;12.472;2023-02-15T09:43:38;5.20;;;3.00;;
74267;SDS011;62638;51.362;12.472;2023-02-15T09:48:48;4.22;;;1.98;;
74267;SDS011;62638;51.362;12.472;2023-02-15T09:51:28;5.20;;;2.83;;
74267;SDS011;62638;51.362;12.472;2023-02-15T09:56:57;5.60;;;2.15;;
74267;SDS011;62638;51.362;12.472;2023-02-15T10:05:09;7.95;;;2.83;;
74267;SDS011;62638;51.362;12.472;2023-02-15T10:10:23;5.20;;;2.33;;
74267;SDS011;62638;51.362;12.472;2023-02-15T10:21:53;4.43;;;1.88;;
74267;SDS011;62638;51.362;12.472;2023-02-15T10:24:11;5.13;;;2.30;;
74267;SDS011;62638;51.362;12.472;2023-02-15T10:26:45;3.92;;;1.90;;
74267;SDS011;62638;51.362;12.472;2023-02-15T10:29:27;5.53;;;2.25;;
74267;SDS011;62638;51.362;12.472;2023-02-15T10:32:16;4.47;;;2.20;;
74267;SDS011;62638;51.362;12.472;2023-02-15T10:34:56;3.38;;;1.77;;
74267;SDS011;62638;51.362;12.472;2023-02-15T10:48:22;4.80;;;2.03;;
74267;SDS011;62638;51.362;12.472;2023-02-15T10:50:49;4.38;;;2.10;;
74267;SDS011;62638;51.362;12.472;2023-02-15T11:01:15;4.20;;;2.17;;
74267;SDS011;62638;51.362;12.472;2023-02-15T11:06:19;4.00;;;2.35;;
74267;SDS011;62638;51.362;12.472;2023-02-15T11:11:26;4.18;;;1.95;;
74267;SDS011;62638;51.362;12.472;2023-02-15T11:13:58;5.72;;;1.73;;
74267;SDS011;62638;51.362;12.472;2023-02-15T11:16:39;5.82;;;2.35;;
74267;SDS011;62638;51.362;12.472;2023-02-15T11:19:14;2.88;;;1.48;;
74267;SDS011;62638;51.362;12.472;2023-02-15T11:24:18;4.30;;;1.98;;
74267;SDS011;62638;51.362;12.472;2023-02-15T11:26:54;5.10;;;2.13;;
74267;SDS011;62638;51.362;12.472;2023-02-15T11:29:35;4.90;;;2.30;;
74267;SDS011;62638;51.362;12.472;2023-02-15T11:35:01;3.25;;;2.33;;
74267;SDS011;62638;51.362;12.472;2023-02-15T11:37:54;4.22;;;1.85;;
74267;SDS011;62638;51.362;12.472;2023-02-15T11:40:36;3.65;;;1.80;;
74267;SDS011;62638;51.362;12.472;2023-02-15T11:43:06;4.05;;;2.35;;
74267;SDS011;62638;51.362;12.472;2023-02-15T11:45:38;3.03;;;1.90;;
74267;SDS011;62638;51.362;12.472;2023-02-15T11:48:11;3.50;;;1.88;;
74267;SDS011;62638;51.362;12.472;2023-02-15T11:50:39;3.17;;;2.13;;
74267;SDS011;62638;51.362;12.472;2023-02-15T11:53:12;4.32;;;1.50;;
74267;SDS011;62638;51.362;12.472;2023-02-15T11:55:42;4.18;;;1.80;;
74267;SDS011;62638;51.362;12.472;2023-02-15T11:58:29;2.67;;;1.40;;
74267;SDS011;62638;51.362;12.472;2023-02-15T12:03:57;3.53;;;1.90;;
74267;SDS011;62638;51.362;12.472;2023-02-15T12:06:43;2.88;;;1.88;;
74267;SDS011;62638;51.362;12.472;2023-02-15T12:09:17;3.00;;;1.98;;
74267;SDS011;62638;51.362;12.472;2023-02-15T12:11:52;3.40;;;2.05;;
74267;SDS011;62638;51.362;12.472;2023-02-15T12:14:17;3.28;;;1.45;;
74267;SDS011;62638;51.362;12.472;2023-02-15T12:16:44;3.13;;;1.95;;
74267;SDS011;62638;51.362;12.472;2023-02-15T12:21:53;4.45;;;2.25;;
74267;SDS011;62638;51.362;12.472;2023-02-15T12:24:29;3.42;;;1.92;;
74267;SDS011;62638;51.362;12.472;2023-02-15T12:26:58;5.72;;;2.45;;
74267;SDS011;62638;51.362;12.472;2023-02-15T12:29:27;3.70;;;2.33;;
74267;SDS011;62638;51.362;12.472;2023-02-15T12:31:56;5.00;;;1.85;;
74267;SDS011;62638;51.362;12.472;2023-02-15T12:34:23;7.55;;;1.90;;
74267;SDS011;62638;51.362;12.472;2023-02-15T12:36:54;4.38;;;1.60;;
74267;SDS011;62638;51.362;12.472;2023-02-15T12:39:26;4.45;;;1.98;;
74267;SDS011;62638;51.362;12.472;2023-02-15T12:44:19;3.70;;;1.70;;
74267;SDS011;62638;51.362;12.472;2023-02-15T12:49:25;3.15;;;1.67;;
74267;SDS011;62638;51.362;12.472;2023-02-15T12:51:53;3.92;;;1.98;;
74267;SDS011;62638;51.362;12.472;2023-02-15T12:56:47;4.27;;;1.73;;
74267;SDS011;62638;51.362;12.472;2023-02-15T12:59:12;3.33;;;2.30;;
74267;SDS011;62638;51.362;12.472;2023-02-15T13:01:44;3.45;;;2.03;;
74267;SDS011;62638;51.362;12.472;2023-02-15T13:04:26;6.15;;;1.70;;
74267;SDS011;62638;51.362;12.472;2023-02-15T13:07:01;4.18;;;2.00;;
74267;SDS011;62638;51.362;12.472;2023-02-15T13:12:16;4.40;;;2.08;;
74267;SDS011;62638;51.362;12.472;2023-02-15T13:14:48;2.22;;;1.40;;
74267;SDS011;62638;51.362;12.472;2023-02-15T13:17:16;6.85;;;2.20;;
74267;SDS011;62638;51.362;12.472;2023-02-15T13:19:46;3.95;;;1.60;;
74267;SDS011;62638;51.362;12.472;2023-02-15T13:22:17;3.67;;;1.65;;
74267;SDS011;62638;51.362;12.472;2023-02-15T13:24:48;4.25;;;1.95;;
74267;SDS011;62638;51.362;12.472;2023-02-15T13:27:18;2.47;;;1.55;;
74267;SDS011;62638;51.362;12.472;2023-02-15T13:29:46;2.70;;;1.50;;
74267;SDS011;62638;51.362;12.472;2023-02-15T13:32:26;3.67;;;1.80;;
74267;SDS011;62638;51.362;12.472;2023-02-15T13:34:56;3.70;;;1.70;;
74267;SDS011;62638;51.362;12.472;2023-02-15T13:40:25;2.88;;;1.17;;
74267;SDS011;62638;51.362;12.472;2023-02-15T13:42:59;4.40;;;1.30;;
74267;SDS011;62638;51.362;12.472;2023-02-15T13:45:52;2.90;;;1.27;;
74267;SDS011;62638;51.362;12.472;2023-02-15T13:51:13;5.55;;;2.00;;
74267;SDS011;62638;51.362;12.472;2023-02-15T13:59:26;3.13;;;1.63;;
74267;SDS011;62638;51.362;12.472;2023-02-15T14:02:31;2.33;;;1.38;;
74267;SDS011;62638;51.362;12.472;2023-02-15T14:05:12;2.20;;;1.40;;
74267;SDS011;62638;51.362;12.472;2023-02-15T14:10:29;2.35;;;1.20;;
74267;SDS011;62638;51.362;12.472;2023-02-15T14:16:02;2.08;;;1.30;;
74267;SDS011;62638;51.362;12.472;2023-02-15T14:24:25;1.92;;;1.20;;
74267;SDS011;62638;51.362;12.472;2023-02-15T14:32:10;1.27;;;0.82;;
74267;SDS011;62638;51.362;12.472;2023-02-15T14:34:43;3.47;;;1.33;;
74267;SDS011;62638;51.362;12.472;2023-02-15T14:37:13;5.68;;;2.00;;
74267;SDS011;62638;51.362;12.472;2023-02-15T14:39:47;2.17;;;1.20;;
74267;SDS011;62638;51.362;12.472;2023-02-15T14:42:44;1.77;;;0.98;;
74267;SDS011;62638;51.362;12.472;2023-02-15T14:45:31;2.08;;;1.20;;
74267;SDS011;62638;51.362;12.472;2023-02-15T14:48:09;2.80;;;1.10;;
74267;SDS011;62638;51.362;12.472;2023-02-15T14:50:42;2.40;;;1.00;;
74267;SDS011;62638;51.362;12.472;2023-02-15T14:58:35;4.20;;;1.40;;
74267;SDS011;62638;51.362;12.472;2023-02-15T15:01:06;2.45;;;1.10;;
74267;SDS011;62638;51.362;12.472;2023-02-15T15:03:34;1.42;;;1.30;;
74267;SDS011;62638;51.362;12.472;2023-02-15T15:06:01;2.90;;;1.27;;
74267;SDS011;62638;51.362;12.472;2023-02-15T15:08:33;3.97;;;1.38;;
74267;SDS011;62638;51.362;12.472;2023-02-15T15:13:55;2.10;;;0.85;;
74267;SDS011;62638;51.362;12.472;2023-02-15T15:19:01;2.22;;;1.15;;
74267;SDS011;62638;51.362;12.472;2023-02-15T15:30:49;2.03;;;0.90;;
74267;SDS011;62638;51.362;12.472;2023-02-15T15:49:39;3.80;;;1.08;;
74267;SDS011;62638;51.362;12.472;2023-02-15T15:52:11;3.70;;;1.25;;
74267;SDS011;62638;51.362;12.472;2023-02-15T15:54:39;1.73;;;0.75;;
74267;SDS011;62638;51.362;12.472;2023-02-15T15:57:11;3.45;;;1.25;;
74267;SDS011;62638;51.362;12.472;2023-02-15T15:59:53;2.00;;;0.90;;
74267;SDS011;62638;51.362;12.472;2023-02-15T16:02:19;2.60;;;1.55;;
74267;SDS011;62638;51.362;12.472;2023-02-15T16:04:45;1.42;;;1.25;;
74267;SDS011;62638;51.362;12.472;2023-02-15T16:10:02;1.83;;;1.13;;
74267;SDS011;62638;51.362;12.472;2023-02-15T16:12:36;2.60;;;1.35;;
74267;SDS011;62638;51.362;12.472;2023-02-15T16:15:11;3.40;;;1.40;;
74267;SDS011;62638;51.362;12.472;2023-02-15T16:17:40;1.85;;;1.38;;
74267;SDS011;62638;51.362;12.472;2023-02-15T16:20:30;2.38;;;1.30;;
74267;SDS011;62638;51.362;12.472;2023-02-15T16:28:21;4.03;;;1.52;;
74267;SDS011;62638;51.362;12.472;2023-02-15T16:30:54;3.47;;;1.80;;
74267;SDS011;62638;51.362;12.472;2023-02-15T16:33:36;4.03;;;1.73;;
74267;SDS011;62638;51.362;12.472;2023-02-15T16:36:03;4.88;;;1.95;;
74267;SDS011;62638;51.362;12.472;2023-02-15T16:41:06;3.45;;;1.50;;
74267;SDS011;62638;51.362;12.472;2023-02-15T16:43:33;3.92;;;1.50;;
74267;SDS011;62638;51.362;12.472;2023-02-15T16:46:05;5.65;;;1.42;;
74267;SDS011;62638;51.362;12.472;2023-02-15T16:48:36;3.63;;;1.75;;
74267;SDS011;62638;51.362;12.472;2023-02-15T16:51:06;2.65;;;1.70;;
74267;SDS011;62638;51.362;12.472;2023-02-15T16:53:32;3.97;;;1.67;;
74267;SDS011;62638;51.362;12.472;2023-02-15T16:55:59;5.70;;;1.88;;
74267;SDS011;62638;51.362;12.472;2023-02-15T16:58:37;2.58;;;1.35;;
74267;SDS011;62638;51.362;12.472;2023-02-15T17:01:06;3.17;;;1.30;;
74267;SDS011;62638;51.362;12.472;2023-02-15T17:03:35;2.55;;;1.27;;
74267;SDS011;62638;51.362;12.472;2023-02-15T17:06:01;3.50;;;1.95;;
74267;SDS011;62638;51.362;12.472;2023-02-15T17:08:43;3.17;;;1.58;;
74267;SDS011;62638;51.362;12.472;2023-02-15T17:16:31;2.42;;;1.38;;
74267;SDS011;62638;51.362;12.472;2023-02-15T17:18:59;9.13;;;2.42;;
74267;SDS011;62638;51.362;12.472;2023-02-15T17:21:33;3.35;;;1.80;;
74267;SDS011;62638;51.362;12.472;2023-02-15T17:24:05;3.65;;;1.50;;
74267;SDS011;62638;51.362;12.472;2023-02-15T17:26:31;5.57;;;2.00;;
74267;SDS011;62638;51.362;12.472;2023-02-15T17:29:00;5.97;;;1.85;;
74267;SDS011;62638;51.362;12.472;2023-02-15T17:31:36;2.30;;;1.38;;
74267;SDS011;62638;51.362;12.472;2023-02-15T17:34:01;8.40;;;2.00;;
74267;SDS011;62638;51.362;12.472;2023-02-15T17:36:28;4.53;;;2.25;;
74267;SDS011;62638;51.362;12.472;2023-02-15T17:41:33;6.63;;;2.15;;
74267;SDS011;62638;51.362;12.472;2023-02-15T17:44:00;4.43;;;1.98;;
74267;SDS011;62638;51.362;12.472;2023-02-15T17:46:28;3.70;;;2.10;;
74267;SDS011;62638;51.362;12.472;2023-02-15T17:48:59;3.85;;;1.73;;
74267;SDS011;62638;51.362;12.472;2023-02-15T17:51:25;3.13;;;1.80;;
74267;SDS011;62638;51.362;12.472;2023-02-15T17:53:51;5.15;;;1.98;;
74267;SDS011;62638;51.362;12.472;2023-02-15T17:56:35;8.10;;;2.55;;